createdAt,value
2018-11-07T00:01:00.971Z,101917.70
2018-11-07T00:03:29.867Z,101916.66
2018-11-07T00:05:58.758Z,101905.93
2018-11-07T00:08:29.022Z,101912.52
2018-11-07T00:10:57.884Z,101911.77
2018-11-07T00:13:26.767Z,101919.84
2018-11-07T00:15:55.999Z,101911.46
2018-11-07T00:18:24.919Z,101916.55
2018-11-07T00:20:53.785Z,101909.09
2018-11-07T00:23:22.716Z,101906.38
2018-11-07T00:25:51.654Z,101913.03
2018-11-07T00:28:20.545Z,101909.89
2018-11-07T00:30:49.528Z,101903.31
2018-11-07T00:33:18.875Z,101910.04
2018-11-07T00:35:47.775Z,101913.77
2018-11-07T00:38:16.720Z,101911.31
2018-11-07T00:40:45.653Z,101910.16
2018-11-07T00:43:14.652Z,101904.02
2018-11-07T00:45:44.089Z,101905.50
2018-11-07T00:48:13.064Z,101906.56
2018-11-07T00:50:42.050Z,101902.11
2018-11-07T00:53:10.947Z,101900.70
2018-11-07T00:55:39.875Z,101905.11
2018-11-07T00:58:08.829Z,101906.75
2018-11-07T01:00:37.721Z,101902.51
2018-11-07T01:03:06.741Z,101908.02
2018-11-07T01:05:35.689Z,101902.05
2018-11-07T01:08:04.636Z,101894.25
2018-11-07T01:10:33.570Z,101895.01
2018-11-07T01:13:02.555Z,101902.66
2018-11-07T01:15:31.419Z,101897.83
2018-11-07T01:18:00.330Z,101903.75
2018-11-07T01:20:32.278Z,101895.98
2018-11-07T01:23:01.162Z,101897.79
2018-11-07T01:25:30.151Z,101888.53
2018-11-07T01:27:59.063Z,101883.19
2018-11-07T01:30:28.011Z,101881.07
2018-11-07T01:32:56.991Z,101879.59
2018-11-07T01:35:25.887Z,101878.47
2018-11-07T01:37:54.804Z,101881.31
2018-11-07T01:40:23.707Z,101877.98
2018-11-07T01:42:58.179Z,101876.83
2018-11-07T01:45:27.099Z,101875.23
2018-11-07T01:47:56.068Z,101883.09
2018-11-07T01:50:25.007Z,101888.08
2018-11-07T01:52:53.971Z,101888.05
2018-11-07T01:55:22.882Z,101884.15
2018-11-07T01:57:51.872Z,101882.78
2018-11-07T02:00:20.928Z,101883.78
2018-11-07T02:02:49.820Z,101884.00
2018-11-07T02:05:18.863Z,101880.52
2018-11-07T02:07:47.802Z,101879.28
2018-11-07T02:10:16.700Z,101879.73
2018-11-07T02:12:45.711Z,101882.66
2018-11-07T02:15:14.622Z,101880.16
2018-11-07T02:17:43.518Z,101881.00
2018-11-07T02:20:12.971Z,101882.45
2018-11-07T02:22:42.370Z,101887.41
2018-11-07T02:25:11.345Z,101886.23
2018-11-07T02:27:41.009Z,101888.54
2018-11-07T02:30:13.622Z,101886.16
2018-11-07T02:32:42.583Z,101901.49
2018-11-07T02:35:11.473Z,101902.09
2018-11-07T02:37:40.568Z,101909.49
2018-11-07T02:40:16.006Z,101910.14
2018-11-07T02:42:44.956Z,101911.94
2018-11-07T02:45:13.949Z,101908.80
2018-11-07T02:47:43.053Z,101909.70
2018-11-07T02:50:12.707Z,101919.59
2018-11-07T02:52:41.804Z,101919.14
2018-11-07T02:55:10.848Z,101918.75
2018-11-07T02:57:39.738Z,101913.59
2018-11-07T03:00:10.959Z,101911.39
2018-11-07T03:02:40.029Z,101910.89
2018-11-07T03:05:09.354Z,101913.80
2018-11-07T03:07:39.465Z,101916.27
2018-11-07T03:10:10.377Z,101904.88
2018-11-07T03:12:39.664Z,101905.22
2018-11-07T03:15:09.039Z,101907.29
2018-11-07T03:17:38.132Z,101908.13
2018-11-07T03:20:08.943Z,101909.12
2018-11-07T03:22:37.828Z,101901.08
2018-11-07T03:25:07.157Z,101905.80
2018-11-07T03:27:36.088Z,101897.39
2018-11-07T03:30:05.990Z,101897.00
2018-11-07T03:32:34.936Z,101900.14
2018-11-07T03:35:03.905Z,101899.89
2018-11-07T03:37:32.871Z,101900.58
2018-11-07T03:40:01.854Z,101899.92
2018-11-07T03:42:30.915Z,101904.40
2018-11-07T03:44:59.829Z,101894.73
2018-11-07T03:47:28.782Z,101902.77
2018-11-07T03:49:57.730Z,101888.91
2018-11-07T03:52:26.632Z,101904.48
2018-11-07T03:54:55.620Z,101906.15
2018-11-07T03:57:24.530Z,101896.44
2018-11-07T03:59:53.418Z,101898.56
2018-11-07T04:02:22.380Z,101900.12
2018-11-07T04:04:51.283Z,101898.88
2018-11-07T04:07:20.236Z,101897.19
2018-11-07T04:09:49.200Z,101907.16
2018-11-07T04:12:18.074Z,101908.46
2018-11-07T04:14:47.013Z,101905.06
2018-11-07T04:17:17.335Z,101911.55
2018-11-07T04:19:46.282Z,101904.08
2018-11-07T04:22:15.384Z,101901.44
2018-11-07T04:24:44.408Z,101906.62
2018-11-07T04:27:13.326Z,101912.13
2018-11-07T04:29:42.203Z,101913.74
2018-11-07T04:32:12.560Z,101917.05
2018-11-07T04:34:41.471Z,101913.45
2018-11-07T04:37:10.341Z,101915.16
2018-11-07T04:39:39.333Z,101911.16
2018-11-07T04:42:08.221Z,101917.29
2018-11-07T04:44:37.203Z,101915.16
2018-11-07T04:47:06.532Z,101921.47
2018-11-07T04:49:35.461Z,101922.77
2018-11-07T04:52:04.398Z,101922.48
2018-11-07T04:54:33.370Z,101931.06
2018-11-07T04:57:02.354Z,101927.66
2018-11-07T04:59:31.312Z,101926.98
2018-11-07T05:02:00.226Z,101932.47
2018-11-07T05:04:29.106Z,101932.38
2018-11-07T05:06:58.095Z,101935.86
2018-11-07T05:09:27.052Z,101940.07
2018-11-07T05:11:56.098Z,101938.44
2018-11-07T05:14:25.123Z,101939.91
2018-11-07T05:16:54.114Z,101942.34
2018-11-07T05:19:23.078Z,101952.19
2018-11-07T05:21:51.950Z,101947.69
2018-11-07T05:24:20.940Z,101946.11
2018-11-07T05:26:51.231Z,101946.79
2018-11-07T05:29:20.199Z,101948.58
2018-11-07T05:31:49.086Z,101946.94
2018-11-07T05:34:18.031Z,101950.70
2018-11-07T05:36:47.086Z,101953.25
2018-11-07T05:39:15.986Z,101948.47
2018-11-07T05:41:46.223Z,101959.13
2018-11-07T05:44:15.216Z,101960.44
2018-11-07T05:46:44.199Z,101957.05
2018-11-07T05:49:13.218Z,101962.91
2018-11-07T05:51:42.176Z,101971.23
2018-11-07T05:54:11.372Z,101969.89
2018-11-07T05:56:40.437Z,101966.59
2018-11-07T05:59:09.308Z,101965.55
2018-11-07T06:01:38.222Z,101970.11
2018-11-07T06:04:07.762Z,101966.80
2018-11-07T06:06:36.719Z,101968.99
2018-11-07T06:09:07.410Z,101974.64
2018-11-07T06:11:36.746Z,101976.52
2018-11-07T06:14:06.255Z,101978.23
2018-11-07T06:16:35.575Z,101968.24
2018-11-07T06:19:04.677Z,101975.38
2018-11-07T06:21:33.812Z,101967.69
2018-11-07T06:24:02.809Z,101972.58
2018-11-07T06:26:31.790Z,101966.22
2018-11-07T06:29:00.712Z,101972.17
2018-11-07T06:31:29.604Z,101960.41
2018-11-07T06:33:58.627Z,101962.02
2018-11-07T06:36:28.924Z,101971.70
2018-11-07T06:38:57.808Z,101978.24
2018-11-07T06:41:26.727Z,101976.06
2018-11-07T06:43:55.879Z,101977.23
2018-11-07T06:46:24.978Z,101973.94
2018-11-07T06:48:53.905Z,101974.06
2018-11-07T06:51:22.898Z,101978.52
2018-11-07T06:53:51.782Z,101984.42
2018-11-07T06:56:20.675Z,101976.97
2018-11-07T06:58:49.612Z,101978.38
2018-11-07T07:01:18.549Z,101978.04
2018-11-07T07:03:47.511Z,101982.00
2018-11-07T07:06:16.477Z,101978.55
2018-11-07T07:08:45.498Z,101974.56
2018-11-07T07:11:14.484Z,101979.33
2018-11-07T07:13:43.409Z,101976.33
2018-11-07T07:16:13.651Z,101974.23
2018-11-07T07:18:42.644Z,101973.31
2018-11-07T07:21:11.628Z,101975.38
2018-11-07T07:23:40.534Z,101972.30
2018-11-07T07:26:09.460Z,101972.08
2018-11-07T07:28:38.515Z,101971.54
2018-11-07T07:31:07.468Z,101963.84
2018-11-07T07:33:36.448Z,101975.69
2018-11-07T07:36:05.331Z,101966.66
2018-11-07T07:38:34.339Z,101966.61
2018-11-07T07:41:03.262Z,101971.27
2018-11-07T07:43:32.215Z,101971.44
2018-11-07T07:46:01.156Z,101954.40
2018-11-07T07:48:30.167Z,101959.05
2018-11-07T07:50:59.023Z,101957.89
2018-11-07T07:53:29.672Z,101960.05
2018-11-07T07:55:58.675Z,101956.92
2018-11-07T07:58:27.599Z,101955.24
2018-11-07T08:00:57.976Z,101958.64
2018-11-07T08:03:26.918Z,101954.95
2018-11-07T08:05:55.951Z,101958.91
2018-11-07T08:08:24.924Z,101962.59
2018-11-07T08:10:53.884Z,101955.02
2018-11-07T08:13:22.901Z,101958.92
2018-11-07T08:15:51.877Z,101957.50
2018-11-07T08:18:20.836Z,101960.67
2018-11-07T08:20:49.771Z,101959.80
2018-11-07T08:23:18.756Z,101959.93
2018-11-07T08:25:47.669Z,101954.09
2018-11-07T08:28:16.638Z,101954.91
2018-11-07T08:30:45.603Z,101955.63
2018-11-07T08:33:14.493Z,101956.86
2018-11-07T08:35:43.471Z,101948.44
2018-11-07T08:38:12.717Z,101945.94
2018-11-07T08:40:41.684Z,101944.85
2018-11-07T08:43:10.659Z,101950.28
2018-11-07T08:45:39.615Z,101946.78
2018-11-07T08:48:08.682Z,101944.55
2018-11-07T08:50:37.630Z,101940.53
2018-11-07T08:53:06.791Z,101939.05
2018-11-07T08:55:37.075Z,101935.19
2018-11-07T08:58:06.023Z,101934.83
2018-11-07T09:00:35.035Z,101938.00
2018-11-07T09:03:04.057Z,101926.88
2018-11-07T09:05:33.083Z,101929.48
2018-11-07T09:08:01.978Z,101927.67
2018-11-07T09:10:30.946Z,101924.89
2018-11-07T09:12:59.938Z,101931.12
2018-11-07T09:15:28.951Z,101919.47
2018-11-07T09:17:59.274Z,101923.84
2018-11-07T09:20:28.204Z,101918.11
2018-11-07T09:22:57.117Z,101915.00
2018-11-07T09:25:26.194Z,101908.25
2018-11-07T09:27:55.191Z,101911.24
2018-11-07T09:30:24.813Z,101907.64
2018-11-07T09:32:53.931Z,101908.91
2018-11-07T09:35:22.976Z,101908.30
2018-11-07T09:37:51.884Z,101905.36
2018-11-07T09:40:27.348Z,101897.25
2018-11-07T09:42:56.382Z,101899.75
2018-11-07T09:45:25.375Z,101893.23
2018-11-07T09:47:54.311Z,101895.17
2018-11-07T09:50:23.264Z,101894.87
2018-11-07T09:52:52.386Z,101896.48
2018-11-07T09:55:21.959Z,101900.47
2018-11-07T09:57:50.971Z,101896.58
2018-11-07T10:00:21.071Z,101892.16
2018-11-07T10:02:50.092Z,101893.77
2018-11-07T10:05:20.291Z,101888.49
2018-11-07T10:07:49.371Z,101886.73
2018-11-07T10:10:19.734Z,101883.06
2018-11-07T10:12:48.831Z,101883.77
2018-11-07T10:15:18.074Z,101878.23
2018-11-07T10:17:47.208Z,101884.69
2018-11-07T10:20:19.732Z,101883.09
2018-11-07T10:22:49.169Z,101874.05
2018-11-07T10:25:18.235Z,101879.47
2018-11-07T10:27:47.721Z,101878.42
2018-11-07T10:30:17.909Z,101878.61
2018-11-07T10:32:47.771Z,101869.12
2018-11-07T10:35:16.990Z,101872.23
2018-11-07T10:37:46.049Z,101870.65
2018-11-07T10:40:16.976Z,101870.87
2018-11-07T10:42:46.581Z,101868.30
2018-11-07T10:45:15.596Z,101862.22
2018-11-07T10:47:45.910Z,101858.59
2018-11-07T10:50:16.116Z,101859.77
2018-11-07T10:52:47.789Z,101855.27
2018-11-07T10:55:17.448Z,101850.13
2018-11-07T10:57:46.920Z,101845.52
2018-11-07T11:00:21.659Z,101842.25
2018-11-07T11:02:55.545Z,101837.50
2018-11-07T11:05:24.445Z,101838.83
2018-11-07T11:07:53.457Z,101839.63
2018-11-07T11:10:22.550Z,101836.44
2018-11-07T11:12:52.748Z,101835.64
2018-11-07T11:15:21.688Z,101831.62
2018-11-07T11:17:50.589Z,101835.55
2018-11-07T11:20:19.590Z,101833.82
2018-11-07T11:22:48.518Z,101828.64
2018-11-07T11:25:17.467Z,101829.19
2018-11-07T11:27:47.824Z,101827.22
2018-11-07T11:30:16.815Z,101832.28
2018-11-07T11:32:45.757Z,101828.53
2018-11-07T11:35:14.955Z,101825.45
2018-11-07T11:37:43.836Z,101825.03
2018-11-07T11:40:14.200Z,101824.48
2018-11-07T11:42:44.528Z,101826.91
2018-11-07T11:45:15.485Z,101834.36
2018-11-07T11:47:44.952Z,101830.47
2018-11-07T11:50:15.799Z,101831.82
2018-11-07T11:52:45.631Z,101831.02
2018-11-07T11:55:14.554Z,101820.70
2018-11-07T11:57:44.271Z,101830.77
2018-11-07T12:00:15.493Z,101818.98
2018-11-07T12:02:44.980Z,101823.08
2018-11-07T12:05:14.875Z,101815.22
2018-11-07T12:07:45.180Z,101818.22
2018-11-07T12:10:19.267Z,101813.16
2018-11-07T12:12:50.424Z,101810.57
2018-11-07T12:15:20.457Z,101816.46
2018-11-07T12:17:49.404Z,101811.88
2018-11-07T12:20:18.494Z,101814.67
2018-11-07T12:22:47.511Z,101812.34
2018-11-07T12:25:17.233Z,101815.26
2018-11-07T12:27:46.385Z,101819.03
2018-11-07T12:30:17.234Z,101815.02
2018-11-07T12:32:47.269Z,101811.77
2018-11-07T12:35:16.991Z,101814.30
2018-11-07T12:37:45.959Z,101813.19
2018-11-07T12:40:15.637Z,101812.95
2018-11-07T12:42:44.632Z,101814.91
2018-11-07T12:45:14.789Z,101816.16
2018-11-07T12:47:43.718Z,101807.84
2018-11-07T12:50:15.225Z,101806.36
2018-11-07T12:52:44.958Z,101807.41
2018-11-07T12:55:14.148Z,101809.02
2018-11-07T12:57:44.239Z,101807.20
2018-11-07T13:00:16.670Z,101806.06
2018-11-07T13:02:45.781Z,101805.05
2018-11-07T13:05:16.263Z,101801.01
2018-11-07T13:07:46.260Z,101811.33
2018-11-07T13:10:17.518Z,101809.44
2018-11-07T13:12:46.992Z,101807.08
2018-11-07T13:15:16.526Z,101804.75
2018-11-07T13:17:46.151Z,101802.08
2018-11-07T13:20:18.194Z,101804.08
2018-11-07T13:22:48.335Z,101803.65
2018-11-07T13:25:17.667Z,101800.70
2018-11-07T13:27:46.718Z,101798.42
2018-11-07T13:30:18.845Z,101801.70
2018-11-07T13:32:47.811Z,101806.39
2018-11-07T13:35:17.523Z,101799.84
2018-11-07T13:37:47.592Z,101799.09
2018-11-07T13:40:18.990Z,101797.20
2018-11-07T13:42:47.963Z,101796.37
2018-11-07T13:45:18.261Z,101793.21
2018-11-07T13:47:48.260Z,101796.51
2018-11-07T13:50:17.620Z,101788.95
2018-11-07T13:52:48.020Z,101791.56
2018-11-07T13:55:16.966Z,101796.67
2018-11-07T13:57:46.210Z,101795.09
2018-11-07T14:00:17.278Z,101793.33
2018-11-07T14:02:46.780Z,101795.09
2018-11-07T14:05:15.774Z,101790.99
2018-11-07T14:07:44.803Z,101795.69
2018-11-07T14:10:18.317Z,101794.27
2018-11-07T14:12:47.352Z,101784.66
2018-11-07T14:15:16.326Z,101800.06
2018-11-07T14:17:45.503Z,101800.99
2018-11-07T14:20:14.499Z,101797.16
2018-11-07T14:22:43.525Z,101798.54
2018-11-07T14:25:13.113Z,101797.04
2018-11-07T14:27:42.387Z,101799.57
2018-11-07T14:30:13.023Z,101805.33
2018-11-07T14:32:59.982Z,101800.30
2018-11-07T14:35:28.941Z,101804.73
2018-11-07T14:37:58.528Z,101800.91
2018-11-07T14:40:27.556Z,101800.67
2018-11-07T14:42:56.484Z,101803.91
2018-11-07T14:45:25.602Z,101809.45
2018-11-07T14:47:55.814Z,101802.93
2018-11-07T14:50:24.765Z,101802.80
2018-11-07T14:52:53.763Z,101798.30
2018-11-07T14:55:22.724Z,101808.56
2018-11-07T14:57:51.600Z,101805.03
2018-11-07T15:00:20.567Z,101806.84
2018-11-07T15:02:49.689Z,101803.23
2018-11-07T15:05:19.148Z,101804.88
2018-11-07T15:07:48.106Z,101809.09
2018-11-07T15:10:17.886Z,101804.28
2018-11-07T15:12:46.843Z,101806.44
2018-11-07T15:15:18.381Z,101810.41
2018-11-07T15:17:47.448Z,101808.72
2018-11-07T15:20:17.243Z,101815.42
2018-11-07T15:22:46.217Z,101807.66
2018-11-07T15:25:16.175Z,101811.86
2018-11-07T15:27:45.918Z,101816.23
2018-11-07T15:30:15.948Z,101817.28
2018-11-07T15:32:45.338Z,101813.09
2018-11-07T15:35:14.770Z,101814.67
2018-11-07T15:37:43.819Z,101813.59
2018-11-07T15:40:18.733Z,101812.52
2018-11-07T15:42:48.066Z,101810.07
2018-11-07T15:45:19.151Z,101820.97
2018-11-07T15:47:48.096Z,101822.05
2018-11-07T15:50:22.171Z,101805.33
2018-11-07T15:52:51.323Z,101822.84
2018-11-07T15:55:20.252Z,101821.86
2018-11-07T15:57:49.195Z,101827.64
2018-11-07T16:00:19.079Z,101829.16
2018-11-07T16:02:48.043Z,101834.63
2018-11-07T16:05:18.931Z,101837.34
2018-11-07T16:07:47.888Z,101839.20
2018-11-07T16:10:17.149Z,101835.89
2018-11-07T16:12:47.314Z,101842.87
2018-11-07T16:15:17.465Z,101837.86
2018-11-07T16:17:46.516Z,101838.16
2018-11-07T16:20:18.105Z,101840.77
2018-11-07T16:22:48.129Z,101845.02
2018-11-07T16:25:17.157Z,101834.63
2018-11-07T16:27:46.355Z,101837.70
2018-11-07T16:30:16.847Z,101837.91
2018-11-07T16:32:45.862Z,101842.09
2018-11-07T16:35:16.627Z,101842.46
2018-11-07T16:37:45.587Z,101842.08
2018-11-07T16:40:15.674Z,101844.50
2018-11-07T16:42:45.169Z,101840.95
2018-11-07T16:45:14.848Z,101844.68
2018-11-07T16:47:44.130Z,101844.22
2018-11-07T16:50:15.799Z,101845.28
2018-11-07T16:52:44.832Z,101843.84
2018-11-07T16:55:13.759Z,101846.30
2018-11-07T16:57:44.031Z,101839.43
2018-11-07T17:00:18.057Z,101834.25
2018-11-07T17:02:48.874Z,101834.04
2018-11-07T17:05:18.306Z,101832.70
2018-11-07T17:07:47.660Z,101829.67
2018-11-07T17:10:16.945Z,101827.69
2018-11-07T17:12:45.914Z,101824.81
2018-11-07T17:15:14.881Z,101818.84
2018-11-07T17:17:43.912Z,101817.58
2018-11-07T17:20:14.308Z,101819.38
2018-11-07T17:22:43.403Z,101825.08
2018-11-07T17:25:14.525Z,101819.55
2018-11-07T17:27:43.822Z,101823.63
2018-11-07T17:30:13.947Z,101824.73
2018-11-07T17:32:43.079Z,101826.09
2018-11-07T17:35:17.343Z,101818.67
2018-11-07T17:37:48.073Z,101807.78
2018-11-07T17:40:19.227Z,101826.95
2018-11-07T17:42:48.407Z,101818.52
2018-11-07T17:45:18.852Z,101807.17
2018-11-07T17:47:48.543Z,101810.88
2018-11-07T17:50:18.095Z,101820.77
2018-11-07T17:52:47.396Z,101812.50
2018-11-07T17:55:17.177Z,101811.77
2018-11-07T17:57:46.248Z,101811.48
2018-11-07T18:00:17.826Z,101811.30
2018-11-07T18:02:46.889Z,101818.28
2018-11-07T18:05:15.919Z,101799.70
2018-11-07T18:07:45.012Z,101804.96
2018-11-07T18:10:15.394Z,101820.67
2018-11-07T18:12:44.939Z,101819.01
2018-11-07T18:15:14.092Z,101817.22
2018-11-07T18:17:43.090Z,101814.50
2018-11-07T18:20:13.413Z,101815.34
2018-11-07T18:22:42.416Z,101823.95
2018-11-07T18:25:12.583Z,101819.23
2018-11-07T18:27:41.916Z,101808.70
2018-11-07T18:30:13.035Z,101808.48
2018-11-07T18:32:42.740Z,101819.01
2018-11-07T18:35:13.362Z,101813.52
2018-11-07T18:37:42.428Z,101813.84
2018-11-07T18:40:12.809Z,101823.81
2018-11-07T18:42:42.032Z,101815.59
2018-11-07T18:45:11.873Z,101808.52
2018-11-07T18:47:42.062Z,101807.92
2018-11-07T18:50:12.659Z,101808.38
2018-11-07T18:52:41.831Z,101812.64
2018-11-07T18:55:14.200Z,101816.06
2018-11-07T18:57:44.031Z,101815.33
2018-11-07T19:00:14.883Z,101813.70
2018-11-07T19:02:44.529Z,101814.72
2018-11-07T19:05:13.632Z,101817.16
2018-11-07T19:07:43.128Z,101810.98
2018-11-07T19:10:20.914Z,101810.81
2018-11-07T19:12:50.637Z,101802.78
2018-11-07T19:15:19.771Z,101806.77
2018-11-07T19:17:50.039Z,101823.85
2018-11-07T19:20:20.617Z,101814.34
2018-11-07T19:22:51.037Z,101820.08
2018-11-07T19:25:21.265Z,101820.36
2018-11-07T19:27:50.295Z,101809.94
2018-11-07T19:30:20.619Z,101813.21
2018-11-07T19:32:50.505Z,101807.92
2018-11-07T19:35:19.975Z,101815.22
2018-11-07T19:37:49.360Z,101813.95
2018-11-07T19:40:25.768Z,101810.67
2018-11-07T19:42:54.655Z,101809.37
2018-11-07T19:45:24.171Z,101815.64
2018-11-07T19:47:53.248Z,101817.37
2018-11-07T19:50:22.819Z,101810.42
2018-11-07T19:52:52.211Z,101807.78
2018-11-07T19:55:24.017Z,101803.03
2018-11-07T19:58:01.547Z,101802.99
2018-11-07T20:00:30.546Z,101802.70
2018-11-07T20:02:59.485Z,101799.61
2018-11-07T20:05:28.492Z,101806.09
2018-11-07T20:07:57.574Z,101797.67
2018-11-07T20:10:26.574Z,101803.91
2018-11-07T20:12:55.458Z,101795.83
2018-11-07T20:15:25.770Z,101798.97
2018-11-07T20:17:54.698Z,101804.36
2018-11-07T20:20:23.676Z,101798.47
2018-11-07T20:22:52.729Z,101804.46
2018-11-07T20:25:21.724Z,101805.13
2018-11-07T20:27:50.683Z,101793.33
2018-11-07T20:30:20.692Z,101794.31
2018-11-07T20:32:49.719Z,101798.54
2018-11-07T20:35:19.713Z,101798.76
2018-11-07T20:37:48.669Z,101797.20
2018-11-07T20:40:18.954Z,101796.30
2018-11-07T20:42:47.967Z,101794.56
2018-11-07T20:45:17.504Z,101792.84
2018-11-07T20:47:46.515Z,101788.67
2018-11-07T20:50:16.993Z,101790.27
2018-11-07T20:52:46.463Z,101797.62
2018-11-07T20:55:15.849Z,101794.28
2018-11-07T20:57:44.875Z,101801.58
2018-11-07T21:00:17.829Z,101798.27
2018-11-07T21:02:47.052Z,101796.97
2018-11-07T21:05:16.020Z,101797.14
2018-11-07T21:07:45.019Z,101793.90
2018-11-07T21:10:18.025Z,101791.86
2018-11-07T21:12:47.442Z,101794.89
2018-11-07T21:15:17.421Z,101789.57
2018-11-07T21:17:46.572Z,101789.08
2018-11-07T21:20:15.776Z,101785.06
2018-11-07T21:22:44.788Z,101783.12
2018-11-07T21:25:14.095Z,101785.72
2018-11-07T21:27:43.091Z,101788.41
2018-11-07T21:30:13.332Z,101789.63
2018-11-07T21:32:42.749Z,101794.19
2018-11-07T21:35:11.822Z,101789.78
2018-11-07T21:37:41.005Z,101790.27
2018-11-07T21:40:11.826Z,101791.44
2018-11-07T21:42:40.798Z,101783.50
2018-11-07T21:45:11.157Z,101790.13
2018-11-07T21:47:40.868Z,101792.53
2018-11-07T21:50:11.355Z,101785.72
2018-11-07T21:52:40.682Z,101788.41
2018-11-07T21:55:09.748Z,101785.05
2018-11-07T21:57:39.110Z,101780.52
2018-11-07T22:00:10.990Z,101781.28
2018-11-07T22:02:39.950Z,101775.79
2018-11-07T22:05:09.356Z,101768.95
2018-11-07T22:07:38.749Z,101771.98
2018-11-07T22:10:08.565Z,101768.78
2018-11-07T22:12:37.530Z,101770.02
2018-11-07T22:15:07.399Z,101771.77
2018-11-07T22:17:36.313Z,101774.42
2018-11-07T22:20:07.978Z,101771.14
2018-11-07T22:22:36.955Z,101774.94
2018-11-07T22:25:06.195Z,101771.98
2018-11-07T22:27:35.369Z,101771.67
2018-11-07T22:30:04.570Z,101771.17
2018-11-07T22:32:33.490Z,101772.55
2018-11-07T22:35:02.581Z,101774.84
2018-11-07T22:37:31.656Z,101765.44
2018-11-07T22:40:00.609Z,101766.25
2018-11-07T22:42:29.499Z,101773.97
2018-11-07T22:44:58.686Z,101776.04
2018-11-07T22:47:27.613Z,101777.41
2018-11-07T22:49:56.523Z,101770.47
2018-11-07T22:52:25.719Z,101775.64
2018-11-07T22:54:54.661Z,101775.02
2018-11-07T22:57:23.628Z,101772.23
2018-11-07T22:59:52.612Z,101775.47
2018-11-07T23:02:22.833Z,101775.61
2018-11-07T23:04:53.109Z,101779.52
2018-11-07T23:07:22.170Z,101781.98
2018-11-07T23:09:51.144Z,101787.81
2018-11-07T23:12:20.100Z,101781.91
2018-11-07T23:14:49.050Z,101786.18
2018-11-07T23:17:18.024Z,101786.34
2018-11-07T23:19:47.011Z,101783.73
2018-11-07T23:22:16.000Z,101780.41
2018-11-07T23:24:44.991Z,101776.83
2018-11-07T23:27:14.083Z,101774.12
2018-11-07T23:29:43.011Z,101772.69
2018-11-07T23:32:11.919Z,101776.59
2018-11-07T23:34:40.935Z,101772.69
2018-11-07T23:37:09.800Z,101767.53
2018-11-07T23:39:38.771Z,101768.16
2018-11-07T23:42:07.764Z,101768.95
2018-11-07T23:44:36.714Z,101768.25
2018-11-07T23:47:05.983Z,101771.46
2018-11-07T23:49:35.013Z,101764.41
2018-11-07T23:52:04.059Z,101763.70
2018-11-07T23:54:32.919Z,101768.71
2018-11-07T23:57:01.887Z,101766.95
2018-11-07T23:59:30.876Z,101764.06
